Anco, Kentucky
Current Conditions -  °F | °C
As of 2:53 PM on Wednesday 17 Dec 2014 (Local Time) from KJKL Reporting Station
Overcast Overcast  
Wind Chill: 33°   Ceiling: 2100
Heat Index: 38°   Visibility: 10mi
Dew Point: 28°   Wind: 6mph
Humidity: 68%   Direction: NA
Pressure: 30.17"   Gusts: NA
Location:  37.2376°N, 83.0326°W
Report Text: KJKL 171953Z AUTO VRB05KT 10SM OVC021 03/M02 A3017 RMK AO2 SLP222 T00331022
Loading
Personal Weather Stations






























Interactive Weather Map New forecast layout! Learn more

10-Day Weather Forecast

Advertisements
Track Severe Weather on mobile